Latest Weather Observations for Gympie

IDQ60901

Issued at 5:05 pm EST Wednesday 3 September 2014 (issued every 10 minutes, with the page automatically refreshed every 10 minutes)

About weather observations | Map of Brisbane area stations | Latest observations for Brisbane area | Other Formats
Station Details ID: 040093 Name: GYMPIE Lat: -26.18 Lon: 152.64 Height: 64.5 m
Data from the previous 72 hours. | See also: Recent months at Gympie
Date/Time
EST
Tmp

°C
App
Tmp
°C
Dew
Point
°C
Rel
Hum
%
Delta-T

°C
Wind Press
QNH
hPa
Press
MSL
hPa
Rain
since
9 am
mm
Dir
 
Spd
km/h
Gust
km/h
Spd
kts
Gust
kts
03/05:00pm 20.0 14.9 -1.7 23 9.3 SW 15 28 8 15 1012.2 1012.0 0.0
03/04:30pm 20.5 15.0 -1.9 22 9.6 WSW 17 28 9 15 1011.7 1011.5 0.0
03/04:00pm 20.7 14.7 -1.8 22 9.7 WSW 20 37 11 20 1011.6 1011.4 0.0
03/03:30pm 21.0 15.4 -0.3 24 9.5 SW 19 35 10 19 1011.4 1011.2 0.0
03/03:00pm 20.9 15.2 -1.0 23 9.6 WSW 19 33 10 18 1011.3 1011.1 0.0
03/02:30pm 20.9 15.0 -1.0 23 9.6 SW 20 35 11 19 1011.0 1010.8 0.0
03/02:00pm 20.8 15.0 -1.7 22 9.7 WSW 19 32 10 17 1011.3 1011.1 0.0
03/01:30pm 20.6 14.4 -3.1 20 9.9 WSW 20 43 11 23 1011.8 1011.6 0.0
03/01:00pm 20.3 13.7 -3.4 20 9.8 WSW 22 35 12 19 1012.0 1011.8 0.0
03/12:30pm 20.3 14.7 -2.7 21 9.7 W 17 35 9 19 1012.2 1012.0 0.0
03/12:00pm 19.7 13.8 -2.6 22 9.4 WSW 19 30 10 16 1012.7 1012.5 0.0
03/11:30am 19.3 13.0 -4.2 20 9.5 WSW 20 32 11 17 1013.4 1013.2 0.0
03/11:00am 18.9 12.8 -2.7 23 9.0 W 20 37 11 20 1013.6 1013.4 0.0
03/10:30am 18.5 13.6 -0.8 27 8.3 WSW 15 20 8 11 1014.2 1014.1 0.0
03/10:00am 17.9 13.1 0.1 30 7.8 WSW 15 26 8 14 1014.4 1014.3 0.0
03/09:30am 17.0 12.2 0.2 32 7.3 W 15 28 8 15 1014.9 1014.8 0.0
03/09:00am 16.8 13.0 2.0 37 6.6 W 11 19 6 10 1015.2 1015.1 0.0
03/08:30am 15.6 11.7 1.4 38 6.2 WSW 11 22 6 12 1015.2 1015.1 0.0
03/08:00am 14.7 9.4 1.9 42 5.6 W 19 30 10 16 1015.1 1015.0 0.0
03/07:30am 14.3 9.9 2.5 45 5.2 W 15 26 8 14 1015.0 1014.9 0.0
03/07:00am 13.5 10.2 2.7 48 4.8 WSW 9 17 5 9 1015.1 1015.0 0.0
03/06:30am 12.3 9.1 3.0 53 4.1 SW 9 17 5 9 1015.0 1014.9 0.0
03/06:00am 12.1 9.2 2.8 53 4.1 WSW 7 13 4 7 1014.5 1014.4 0.0
03/05:30am 12.7 9.0 2.6 50 4.4 SW 11 20 6 11 1014.4 1014.3 0.0
03/05:00am 12.9 9.6 2.2 48 4.7 SSW 9 20 5 11 1014.0 1013.8 0.0
03/04:30am 13.3 9.6 2.2 47 4.9 SSW 11 20 6 11 1013.5 1013.3 0.0
03/04:00am 13.5 9.8 2.1 46 5.0 SSW 11 20 6 11 1013.3 1013.1 0.0
03/03:30am 14.0 9.9 2.0 44 5.3 SW 13 33 7 18 1013.2 1013.0 0.0
03/03:00am 14.2 10.0 1.8 43 5.4 SW 13 30 7 16 1013.5 1013.3 0.0
03/02:30am 14.5 10.3 1.4 41 5.7 SW 13 30 7 16 1013.7 1013.5 0.0
03/02:00am 15.0 10.3 1.2 39 6.0 SW 15 37 8 20 1013.9 1013.7 0.0
03/01:30am 15.5 10.4 0.9 37 6.3 SW 17 37 9 20 1014.1 1013.9 0.0
03/01:00am 15.8 11.5 0.8 36 6.5 SW 13 26 7 14 1014.2 1014.1 0.0
03/12:30am 16.6 12.0 1.5 36 6.7 SSW 15 35 8 19 1014.2 1014.1 0.0
03/12:00am 16.8 12.5 1.3 35 6.9 SSW 13 24 7 13 1014.0 1013.8 0.0
 
Date/Time
EST
Tmp

°C
App
Tmp
°C
Dew
Point
°C
Rel
Hum
%
Delta-T

°C
Wind Press
QNH
hPa
Press
MSL
hPa
Rain
since
9 am
mm
Dir
 
Spd
km/h
Gust
km/h
Spd
kts
Gust
kts
02/11:30pm 17.1 12.5 1.5 35 7.0 SSW 15 30 8 16 1013.7 1013.5 0.0
02/11:00pm 17.7 12.8 1.7 34 7.2 SSW 17 24 9 13 1013.3 1013.1 0.0
02/10:30pm 18.0 13.1 1.9 34 7.3 SSW 17 33 9 18 1013.2 1013.0 0.0
02/10:00pm 18.5 14.3 1.9 33 7.5 SSW 13 30 7 16 1013.1 1012.9 0.0
02/09:30pm 19.3 15.0 1.3 30 8.1 SW 13 32 7 17 1012.8 1012.6 0.0
02/09:00pm 19.9 15.4 2.3 31 8.2 SW 15 28 8 15 1012.6 1012.4 0.0
02/08:30pm 21.1 16.6 4.2 33 8.2 SW 17 33 9 18 1012.1 1011.9 0.0
02/08:00pm 21.7 17.5 3.9 31 8.6 SW 15 32 8 17 1011.7 1011.5 0.0
02/07:30pm 22.3 18.4 3.4 29 9.1 WSW 13 30 7 16 1011.2 1011.0 0.0
02/07:00pm 22.5 19.0 3.6 29 9.2 WSW 11 28 6 15 1010.7 1010.5 0.0
02/06:30pm 23.2 19.3 3.2 27 9.7 WSW 13 26 7 14 1010.2 1010.0 0.0
02/06:00pm 24.1 19.2 2.3 24 10.4 SW 17 24 9 13 1009.7 1009.5 0.0
02/05:30pm 23.6 22.3 11.3 46 6.9 N 9 22 5 12 1009.1 1008.9 0.0
02/05:00pm 26.7 22.6 4.5 24 11.3 NW 15 24 8 13 1008.1 1007.9 0.0
02/04:30pm 26.7 22.7 5.1 25 11.1 NNW 15 30 8 16 1008.0 1007.8 0.0
02/04:00pm 26.8 23.1 9.6 34 9.6 NNW 19 37 10 20 1007.9 1007.7 0.0
02/03:30pm 26.9 23.8 8.8 32 9.9 NNW 15 20 8 11 1008.1 1007.9 0.0
02/03:00pm 26.5 22.8 8.0 31 10.0 NNW 17 26 9 14 1008.3 1008.1 0.0
02/02:30pm 26.8 22.6 8.3 31 10.0 NW 20 33 11 18 1008.8 1008.6 0.0
02/02:00pm 26.7 23.5 10.0 35 9.3 NW 17 22 9 12 1009.2 1009.0 0.0
02/01:30pm 26.3 22.7 10.0 36 9.1 NW 19 35 10 19 1009.7 1009.5 0.0
02/01:00pm 25.9 22.2 10.1 37 8.8 NNW 20 33 11 18 1010.5 1010.3 0.0
02/12:30pm 24.8 21.2 10.7 41 7.9 NNW 20 32 11 17 1011.0 1010.8 0.0
02/12:00pm 23.6 20.9 11.6 47 6.8 NNW 17 24 9 13 1011.8 1011.6 0.0
02/11:30am 23.3 20.9 12.6 51 6.1 NNW 17 26 9 14 1012.7 1012.5 0.0
02/11:00am 22.6 20.5 13.7 57 5.2 NNW 17 26 9 14 1013.3 1013.1 0.0
02/10:30am 21.5 18.7 12.6 57 5.1 NNW 19 26 10 14 1014.0 1013.8 0.0
02/10:00am 20.7 18.9 13.4 63 4.2 NNW 15 24 8 13 1014.5 1014.4 0.0
02/09:30am 20.0 18.8 13.9 68 3.5 N 13 22 7 12 1015.2 1015.1 0.0
02/09:00am 18.8 17.8 14.5 76 2.5 NNW 13 20 7 11 1015.8 1015.7 0.0
02/08:30am 17.9 17.9 15.2 84 1.6 NNW 9 17 5 9 1015.9 1015.8 0.0
02/08:00am 16.1 17.6 15.8 98 0.2 W 2 4 1 2 1016.2 1016.1 0.0
02/07:30am 14.9 16.0 14.7 99 0.1 W 2 6 1 3 1016.1 1016.0 0.0
02/07:00am 14.5 15.5 14.3 99 0.1 SW 2 6 1 3 1015.9 1015.8 0.0
02/06:30am 14.0 14.8 13.8 99 0.1 WSW 2 6 1 3 1015.9 1015.8 0.0
02/06:00am 14.2 15.1 14.0 99 0.1 SW 2 4 1 2 1015.7 1015.6 0.0
02/05:30am 14.3 15.2 14.0 98 0.2 SSW 2 6 1 3 1015.5 1015.4 0.0
02/05:00am 14.7 16.1 14.4 98 0.2 CALM 0 0 0 0 1015.4 1015.3 0.0
02/04:30am 15.0 16.4 14.5 97 0.3 CALM 0 0 0 0 1015.6 1015.5 0.0
02/04:00am 15.0 16.3 14.2 95 0.5 CALM 0 0 0 0 1015.5 1015.4 0.0
02/03:30am 15.4 16.4 14.4 94 0.6 NW 2 6 1 3 1015.5 1015.4 0.0
02/03:00am 16.1 16.6 15.5 96 0.3 N 7 15 4 8 1015.7 1015.6 0.0
02/02:30am 15.9 16.6 15.6 98 0.2 N 6 7 3 4 1015.6 1015.5 0.0
02/02:00am 13.1 13.4 12.2 94 0.5 NW 2 6 1 3 1016.1 1016.0 0.0
02/01:30am 13.3 13.7 12.4 94 0.5 W 2 4 1 2 1016.3 1016.2 0.0
02/01:00am 13.2 13.8 11.8 91 0.7 CALM 0 4 0 2 1016.5 1016.4 0.0
02/12:30am 13.4 14.0 11.8 90 0.9 CALM 0 4 0 2 1016.9 1016.8 0.0
02/12:00am 12.8 12.7 10.7 87 1.1 N 2 4 1 2 1017.2 1017.1 0.0
 
Date/Time
EST
Tmp

°C
App
Tmp
°C
Dew
Point
°C
Rel
Hum
%
Delta-T

°C
Wind Press
QNH
hPa
Press
MSL
hPa
Rain
since
9 am
mm
Dir
 
Spd
km/h
Gust
km/h
Spd
kts
Gust
kts
01/11:30pm 12.8 13.0 10.7 87 1.1 CALM 0 0 0 0 1017.3 1017.2 0.0
01/11:00pm 13.9 14.3 11.2 84 1.4 CALM 0 0 0 0 1017.3 1017.2 0.0
01/10:30pm 14.3 14.7 11.3 82 1.6 CALM 0 0 0 0 1017.2 1017.1 0.0
01/10:00pm 15.4 15.3 10.8 74 2.4 NE 2 4 1 2 1017.5 1017.4 0.0
01/09:30pm 16.1 16.3 10.4 69 3.0 CALM 0 4 0 2 1017.5 1017.4 0.0
01/09:00pm 17.8 17.3 10.7 63 3.8 N 4 6 2 3 1017.5 1017.4 0.0
01/08:30pm 17.6 17.7 10.2 62 3.9 CALM 0 4 0 2 1017.4 1017.3 0.0
01/08:00pm 17.7 17.8 10.3 62 3.9 CALM 0 2 0 1 1017.3 1017.2 0.0
01/07:30pm 19.1 18.4 11.4 61 4.2 N 6 7 3 4 1017.1 1017.0 0.0
01/07:00pm 19.9 18.6 11.1 57 4.8 N 9 17 5 9 1016.9 1016.8 0.0
01/06:30pm 20.6 19.1 10.4 52 5.5 N 9 17 5 9 1016.5 1016.4 0.0
01/06:00pm 21.6 19.0 9.2 45 6.6 NNE 13 20 7 11 1016.0 1015.9 0.0
01/05:30pm 23.1 21.2 9.1 41 7.5 NNE 9 13 5 7 1015.6 1015.5 0.0
01/05:00pm 24.5 22.0 6.7 32 9.2 N 9 15 5 8 1015.2 1015.1 0.0
01/04:30pm 25.1 22.5 6.3 30 9.7 N 9 13 5 7 1015.0 1014.9 0.0
01/04:00pm 25.4 23.1 7.5 32 9.5 N 9 15 5 8 1014.9 1014.8 0.0
01/03:30pm 25.4 23.3 6.6 30 9.8 NNE 7 13 4 7 1014.9 1014.8 0.0
01/03:00pm 25.8 23.3 8.3 33 9.4 NNW 11 19 6 10 1015.0 1014.9 0.0
01/02:30pm 25.7 24.0 8.2 33 9.4 NNE 7 15 4 8 1015.4 1015.3 0.0
01/02:00pm 24.9 22.4 6.6 31 9.5 N 9 17 5 9 1016.0 1015.9 0.0
01/01:30pm 25.1 22.5 7.7 33 9.2 NNW 11 22 6 12 1016.3 1016.2 0.0
01/01:00pm 24.7 22.3 10.2 40 8.0 N 13 22 7 12 1017.0 1016.9 0.0
01/12:30pm 24.1 22.4 9.7 40 7.9 N 9 17 5 9 1017.3 1017.2 0.0
01/12:00pm 23.5 22.5 12.2 49 6.4 NNW 9 15 5 8 1017.6 1017.5 0.0
01/11:30am 22.9 21.9 12.2 51 6.1 N 9 15 5 8 1018.0 1017.9 0.0
01/11:00am 22.2 21.6 13.5 57 5.0 N 9 17 5 9 1018.7 1018.6 0.0
01/10:30am 21.7 21.0 13.1 58 4.9 NW 9 15 5 8 1019.6 1019.5 0.0
01/10:00am 20.6 21.4 14.7 69 3.5 ESE 4 7 2 4 1020.0 1019.9 0.0
01/09:30am 18.2 19.6 14.5 79 2.1 CALM 0 4 0 2 1020.4 1020.4 0.0
01/09:00am 16.3 16.9 14.3 88 1.1 SSE 4 4 2 2 1020.3 1020.3 0.0
01/08:30am 14.2 15.1 12.8 91 0.8 CALM 0 0 0 0 1020.3 1020.3 0.0
01/08:00am 11.9 12.4 11.7 99 0.1 CALM 0 0 0 0 1020.1 1020.1 0.0
01/07:30am 10.9 11.1 10.7 99 0.1 CALM 0 0 0 0 1020.0 1020.0 0.0
01/07:00am 10.3 10.4 10.1 99 0.1 CALM 0 0 0 0 1019.4 1019.4 0.0
01/06:30am 10.0 10.0 9.9 99 0.1 CALM 0 0 0 0 1019.2 1019.2 0.0
01/06:00am 9.5 9.4 9.4 99 0.0 CALM 0 0 0 0 1019.1 1019.1 0.0
01/05:30am 9.3 9.1 9.0 98 0.1 CALM 0 0 0 0 1018.9 1018.9 0.0
01/05:00am 9.3 9.1 9.2 99 0.0 CALM 0 0 0 0 1018.7 1018.7 0.0
01/04:30am 9.7 9.6 9.4 98 0.1 CALM 0 0 0 0 1018.4 1018.4 0.0
01/04:00am 9.8 9.7 9.5 98 0.1 CALM 0 0 0 0 1018.5 1018.5 0.0
01/03:30am 10.3 10.3 9.8 97 0.3 CALM 0 0 0 0 1018.4 1018.4 0.0
01/03:00am 10.6 10.7 10.1 97 0.3 CALM 0 0 0 0 1018.5 1018.5 0.0
01/02:30am 10.9 11.1 10.4 97 0.3 CALM 0 0 0 0 1018.5 1018.5 0.0
01/02:00am 11.1 11.3 10.6 97 0.3 CALM 0 0 0 0 1018.6 1018.6 0.0
01/01:30am 11.2 11.4 10.7 97 0.3 CALM 0 0 0 0 1018.7 1018.7 0.0
01/01:00am 11.2 11.0 10.6 96 0.3 S 2 6 1 3 1018.9 1018.9 0.0
01/12:30am 11.5 11.8 10.9 96 0.3 CALM 0 0 0 0 1018.9 1018.9 0.0
01/12:00am 11.6 11.9 10.8 95 0.4 CALM 0 0 0 0 1018.9 1018.9 0.0
 
Date/Time
EST
Tmp

°C
App
Tmp
°C
Dew
Point
°C
Rel
Hum
%
Delta-T

°C
Wind Press
QNH
hPa
Press
MSL
hPa
Rain
since
9 am
mm
Dir
 
Spd
km/h
Gust
km/h
Spd
kts
Gust
kts
31/11:30pm 11.7 12.0 10.8 94 0.5 CALM 0 0 0 0 1019.1 1019.1 0.0
31/11:00pm 12.3 12.7 11.4 94 0.5 CALM 0 0 0 0 1019.1 1019.1 0.0
31/10:30pm 11.9 12.2 10.8 93 0.6 CALM 0 0 0 0 1019.3 1019.3 0.0
31/10:00pm 12.8 13.0 11.7 93 0.6 WSW 2 4 1 2 1019.2 1019.2 0.0
31/09:30pm 12.2 12.4 10.4 89 0.9 CALM 0 0 0 0 1019.1 1019.1 0.0
31/09:00pm 13.5 14.0 11.6 88 1.0 CALM 0 0 0 0 1019.0 1019.0 0.0
31/08:30pm 14.7 15.3 12.0 84 1.5 CALM 0 0 0 0 1019.0 1019.0 0.0
31/08:00pm 15.4 16.0 11.8 79 1.9 CALM 0 0 0 0 1018.6 1018.6 0.0
31/07:30pm 16.8 17.1 12.1 74 2.6 ENE 2 4 1 2 1018.3 1018.3 0.0
31/07:00pm 17.1 17.7 12.0 72 2.8 CALM 0 0 0 0 1018.0 1018.0 0.0
31/06:30pm 18.2 18.1 12.2 68 3.3 ESE 4 6 2 3 1017.4 1017.4 0.0
31/06:00pm 18.6 18.4 11.7 64 3.8 ESE 4 7 2 4 1016.9 1016.9 0.0
31/05:30pm 20.1 19.4 12.1 60 4.5 ESE 7 15 4 8 1016.5 1016.5 0.0

Latest Capital City Observations: Canberra | Sydney | Melbourne | Brisbane | Adelaide | Perth | Hobart | Darwin

Other Formats:

Comma delimited format used in spreadsheet applications
http://www.bom.gov.au/fwo/IDQ60901/IDQ60901.94566.axf

JavaScript Object Notation format (JSON) in row-major order
http://www.bom.gov.au/fwo/IDQ60901/IDQ60901.94566.json